Terminal Aerodrome Forecast
Issued by NWS Columbia, SC

Home | Current Version | Previous Version | Text Only | Print | Product List | Glossary On
Versions: 1 2 3 4 5 6 7 8 9 10 11 12 13 14 15 16 17 18 19 20 21 22 23 24 25 26 27 28 29 30 31 32 33 34 35 36 37 38 39 40 41 42 43 44 45
000
FTAK31 PAJN 111138
TAFAGS
TAF
PAGS 111138Z 1112/1212 34006KT 5SM RA BR OVC010
     FM111800 11009KT 6SM -RA BR BKN015 OVC030
     FM120000 14005KT P6SM -RA SCT015 BKN030 OVC050
     FM120600 14003KT P6SM -RA BKN025 OVC040
      AMD LTD TO CLD VIS AND WIND=

USA.gov is the U.S. government's official web portal to all federal, state and local government web resources and services.